Terminal Aerodrome Forecast
Issued by NWS St Louis, MO

Home | Current Version | Previous Version | Text Only | Print | Product List | Glossary On
Versions: 1 2 3 4 5 6 7 8 9 10 11 12 13 14 15 16 17 18 19 20 21 22 23 24 25 26 27 28 29 30 31
000
FTUS43 KLSX 212055 AAA
TAFSTL
TAF AMD
KSTL 212055Z 2121/2224 18013G23KT P6SM SCT050 BKN150
     FM220700 17012KT 5SM SHRA VCTS BKN060CB
     FM221100 18009KT P6SM SHRA VCTS OVC025CB
     FM221300 22006KT P6SM SHRA OVC015
     FM221600 28006KT P6SM SHRA OVC015
     FM222100 32006KT 6SM -SHRA BKN035=

USA.gov is the U.S. government's official web portal to all federal, state and local government web resources and services.